Time;durP1;ratioP1;P1;durP2;ratioP2;P2;SDS_P1;SDS_P2;PMS_P1;PMS_P2;Temp;Humidity;BMP_temperature;BMP_pressure;BME280_temperature;BME280_humidity;BME280_pressure;Samples;Min_cycle;Max_cycle;Signal;HPM_P1;HPM_P2
2021/04/21 00:09:03;;;;;;;20.3;16;;;;;;;7.47;90.76563;98342.52;;;;
2021/04/21 00:19:02;;;;;;;23.8;19.5;;;;;;;7.57;89.99414;98328.95;;;;
2021/04/21 00:29:01;;;;;;;21.7;17.5;;;;;;;7.49;90.9375;98326.95;;;;
2021/04/21 00:38:59;;;;;;;24.3;20.7;;;;;;;7.52;90.32715;98330.93;;;;
2021/04/21 00:49:06;;;;;;;23.8;18.3;;;;;;;7.52;90.61719;98325.56;;;;
2021/04/21 00:58:56;;;;;;;27.2;21.1;;;;;;;7.42;90.94434;98318.5;;;;
2021/04/21 01:08:55;;;;;;;29.3;20.6;;;;;;;7.22;92.49512;98315.34;;;;
2021/04/21 01:18:53;;;;;;;24.6;22;;;;;;;7.14;93.46973;98302.59;;;;
2021/04/21 01:28:52;;;;;;;21.2;18.9;;;;;;;7.13;93.5791;98309.84;;;;
2021/04/21 01:38:50;;;;;;;27.5;21.4;;;;;;;7.11;93.30566;98308.55;;;;
2021/04/21 01:48:49;;;;;;;28.7;23.6;;;;;;;7.02;95.22559;98330.63;;;;
2021/04/21 01:58:53;;;;;;;29.8;25;;;;;;;6.74;99.54199;98320.04;;;;
2021/04/21 02:08:45;;;;;;;32;23.6;;;;;;;6.77;99.77246;98324.84;;;;
2021/04/21 02:18:44;;;;;;;26.9;23.6;;;;;;;6.62;100;98322.36;;;;
2021/04/21 02:28:42;;;;;;;31.6;27.7;;;;;;;6.41;100;98319.15;;;;
2021/04/21 02:38:41;;;;;;;24.2;21;;;;;;;6.48;100;98312.36;;;;
2021/04/21 02:48:39;;;;;;;24.7;21;;;;;;;6.49;100;98308.58;;;;
2021/04/21 02:58:37;;;;;;;30.3;22.6;;;;;;;6.54;100;98305.05;;;;
2021/04/21 03:08:36;;;;;;;29.1;22.2;;;;;;;6.6;100;98298.54;;;;
2021/04/21 03:18:34;;;;;;;25.3;21.3;;;;;;;6.56;100;98313.58;;;;
2021/04/21 03:28:32;;;;;;;25.9;22.5;;;;;;;6.53;100;98300.77;;;;
2021/04/21 03:38:31;;;;;;;32.4;23;;;;;;;6.57;100;98304.47;;;;
2021/04/21 03:48:31;;;;;;;25.5;21.7;;;;;;;6.63;100;98310.58;;;;
2021/04/21 03:58:28;;;;;;;22;17.4;;;;;;;6.82;100;98320.2;;;;
2021/04/21 04:08:27;;;;;;;21.7;19.6;;;;;;;6.89;100;98323.32;;;;
2021/04/21 04:18:25;;;;;;;25;22.3;;;;;;;6.91;100;98318.45;;;;
2021/04/21 04:28:27;;;;;;;28.1;23.8;;;;;;;6.84;100;98317.22;;;;
2021/04/21 04:38:23;;;;;;;30.2;23.9;;;;;;;6.91;100;98318.45;;;;
2021/04/21 04:48:28;;;;;;;24.2;20.4;;;;;;;7.14;100;98324.03;;;;
2021/04/21 04:58:18;;;;;;;23;17.4;;;;;;;7.3;100;98330.74;;;;
2021/04/21 05:08:17;;;;;;;24.2;21.7;;;;;;;7.33;100;98328.27;;;;
2021/04/21 05:18:15;;;;;;;20.7;18.4;;;;;;;7.61;100;98334.52;;;;
2021/04/21 05:28:14;;;;;;;29.6;24.7;;;;;;;7.85;100;98339.73;;;;
2021/04/21 05:38:13;;;;;;;26.9;22.7;;;;;;;8.08;100;98346.85;;;;
2021/04/21 05:48:11;;;;;;;29;22.5;;;;;;;8.57;100;98368.45;;;;
2021/04/21 05:58:10;;;;;;;25.5;22.7;;;;;;;8.83;98.52441;98373.31;;;;
2021/04/21 06:08:08;;;;;;;29.5;25;;;;;;;9.26;94.82129;98369.14;;;;
2021/04/21 06:18:07;;;;;;;40;28.2;;;;;;;9.4;93.49609;98375.27;;;;
2021/04/21 06:28:06;;;;;;;37.7;29.7;;;;;;;9.66;94.91797;98371.95;;;;
2021/04/21 06:38:05;;;;;;;41.1;30.2;;;;;;;10.01;93.55859;98373.77;;;;
2021/04/21 06:48:04;;;;;;;29.9;26.8;;;;;;;10.16;91.63965;98373.41;;;;
2021/04/21 06:58:03;;;;;;;35.1;26.7;;;;;;;10.47;87.45703;98365.3;;;;
2021/04/21 07:08:01;;;;;;;31.2;25.3;;;;;;;10.67;87.94629;98378.2;;;;
2021/04/21 07:18:00;;;;;;;26.2;21.2;;;;;;;11.03;83.54785;98367.98;;;;
2021/04/21 07:27:59;;;;;;;31;25.3;;;;;;;11.61;83.55664;98381;;;;
2021/04/21 07:37:58;;;;;;;32.8;29.5;;;;;;;12.54;80.77832;98377.6;;;;
2021/04/21 07:47:58;;;;;;;42.7;29.6;;;;;;;12.82;76.8623;98377.94;;;;
2021/04/21 07:57:57;;;;;;;30.4;26.7;;;;;;;12.5;77.50879;98392.88;;;;
2021/04/21 08:07:56;;;;;;;30.7;25.2;;;;;;;12.5;77.2041;98393.67;;;;
2021/04/21 08:17:55;;;;;;;31.3;25.7;;;;;;;12.78;76.93555;98385.11;;;;
2021/04/21 08:27:55;;;;;;;29.2;24.5;;;;;;;13.42;78.09082;98391.11;;;;
2021/04/21 08:37:54;;;;;;;25.7;22.2;;;;;;;13.2;74.61328;98394.13;;;;
2021/04/21 08:47:54;;;;;;;34.4;21.3;;;;;;;13.05;75.48438;98384.66;;;;
2021/04/21 08:57:52;;;;;;;29.3;24.8;;;;;;;13.4;75.71484;98387.92;;;;
2021/04/21 09:07:52;;;;;;;29.7;24.4;;;;;;;13.91;75.98535;98383.98;;;;
2021/04/21 09:17:51;;;;;;;28.1;25.1;;;;;;;14.48;73.09961;98387.52;;;;
2021/04/21 09:27:50;;;;;;;27.1;23.8;;;;;;;14.92;73.28418;98379.63;;;;
2021/04/21 09:37:50;;;;;;;27.8;20.4;;;;;;;14.91;71.24219;98367.18;;;;
2021/04/21 09:47:49;;;;;;;21.1;15.3;;;;;;;14.86;66.32129;98354.63;;;;
2021/04/21 09:57:49;;;;;;;15.8;13.9;;;;;;;15.04;66.48535;98355.17;;;;
2021/04/21 10:07:48;;;;;;;25.7;19.1;;;;;;;15.5;66.00488;98332.12;;;;
2021/04/21 10:17:48;;;;;;;20.8;12.7;;;;;;;15.32;62.15527;98326.15;;;;
2021/04/21 10:27:47;;;;;;;10;7.7;;;;;;;15.48;62.64746;98321.58;;;;
2021/04/21 10:37:47;;;;;;;11.3;7.3;;;;;;;15.83;58.83008;98319.05;;;;
2021/04/21 10:47:46;;;;;;;9.9;7.4;;;;;;;15.79;61.86426;98301.84;;;;
2021/04/21 10:57:46;;;;;;;8.7;7.8;;;;;;;15.67;60.35645;98295.7;;;;
2021/04/21 11:07:46;;;;;;;12.4;9.3;;;;;;;15.69;62.27441;98285.3;;;;
2021/04/21 11:17:45;;;;;;;14.5;10.2;;;;;;;15.67;61.52637;98271.25;;;;
2021/04/21 11:27:46;;;;;;;12.5;7.6;;;;;;;15.81;61.74121;98260.75;;;;
2021/04/21 11:37:45;;;;;;;10.1;8;;;;;;;16.2;58.43066;98251.66;;;;
2021/04/21 11:47:45;;;;;;;11.4;7.9;;;;;;;16.37;59.18848;98250.48;;;;
2021/04/21 11:57:44;;;;;;;9.2;7.3;;;;;;;15.87;59.35156;98234.89;;;;
2021/04/21 12:07:43;;;;;;;12.6;6.5;;;;;;;15.61;55.6084;98235.41;;;;
2021/04/21 12:17:43;;;;;;;10.9;6.8;;;;;;;16.08;54.93164;98233.49;;;;
2021/04/21 12:27:43;;;;;;;11.9;8;;;;;;;15.9;53.80469;98239.63;;;;
2021/04/21 12:37:42;;;;;;;10.8;7.4;;;;;;;16.15;55.16992;98208.41;;;;
2021/04/21 12:47:41;;;;;;;11.2;6.3;;;;;;;16.24;54.8125;98221.83;;;;
2021/04/21 12:57:41;;;;;;;9;7.4;;;;;;;16.05;52.74316;98201.58;;;;
2021/04/21 13:07:41;;;;;;;10.5;5.9;;;;;;;16.28;52.55078;98184.63;;;;
2021/04/21 13:17:40;;;;;;;8.2;6;;;;;;;16.59;52.12695;98170.97;;;;
2021/04/21 13:27:40;;;;;;;9.6;6.2;;;;;;;16.88;50.66113;98181.28;;;;
2021/04/21 13:37:39;;;;;;;10.5;7.1;;;;;;;16.82;47.19238;98174.55;;;;
2021/04/21 13:47:39;;;;;;;9.1;6.6;;;;;;;17.29;49.0791;98165.32;;;;
2021/04/21 13:57:39;;;;;;;9.6;8;;;;;;;18.16;50.18359;98170.7;;;;
2021/04/21 14:07:38;;;;;;;12.7;8.7;;;;;;;17.59;50.46484;98171.75;;;;
2021/04/21 14:17:38;;;;;;;14.8;9.4;;;;;;;16.68;52.62012;98206.12;;;;
2021/04/21 14:27:38;;;;;;;12.4;7.3;;;;;;;13.83;63.63379;98228.53;;;;
2021/04/21 14:37:37;;;;;;;14.4;8.8;;;;;;;13.32;66.41895;98231.81;;;;
2021/04/21 14:47:37;;;;;;;9.2;8.2;;;;;;;13.48;70.20117;98262.53;;;;
2021/04/21 14:57:36;;;;;;;16.7;7.8;;;;;;;14.26;71.30762;98263.23;;;;
2021/04/21 15:07:35;;;;;;;12.2;7;;;;;;;13.77;71.61328;98256.18;;;;
2021/04/21 15:17:35;;;;;;;10;8.4;;;;;;;14.45;70.80176;98259.95;;;;
2021/04/21 15:27:34;;;;;;;12.3;8.4;;;;;;;13.97;72.77539;98250.67;;;;
2021/04/21 15:37:33;;;;;;;11.1;7.4;;;;;;;13.67;72.64551;98257.41;;;;
2021/04/21 15:47:33;;;;;;;16;7.3;;;;;;;13.82;72.35254;98248.62;;;;
2021/04/21 15:57:32;;;;;;;9.9;7;;;;;;;13.53;70.23438;98249.59;;;;
2021/04/21 16:07:31;;;;;;;16.9;8.2;;;;;;;13.24;69.36719;98248.91;;;;
2021/04/21 16:17:31;;;;;;;14.4;7.9;;;;;;;12.88;70.40137;98227.86;;;;
2021/04/21 16:27:30;;;;;;;11.3;8.2;;;;;;;12.81;71.29883;98233.02;;;;
2021/04/21 16:37:29;;;;;;;14.5;8.8;;;;;;;12.76;71.54199;98234.02;;;;
2021/04/21 16:47:28;;;;;;;16.8;10.7;;;;;;;12.58;72.02148;98240.67;;;;
2021/04/21 16:57:27;;;;;;;17.2;12.4;;;;;;;12.41;72.91406;98248.89;;;;
2021/04/21 17:07:27;;;;;;;17.2;12.3;;;;;;;12.3;73.17871;98244.98;;;;
2021/04/21 17:17:26;;;;;;;17.9;12.1;;;;;;;12.1;77.49609;98257.33;;;;
2021/04/21 17:27:25;;;;;;;16.4;14;;;;;;;11.96;76.5332;98260.24;;;;
2021/04/21 17:37:25;;;;;;;17.2;14.3;;;;;;;11.79;77.01074;98260.31;;;;
2021/04/21 17:47:25;;;;;;;17.2;12.8;;;;;;;11.52;77.57422;98260.68;;;;
2021/04/21 17:57:25;;;;;;;19.2;15.7;;;;;;;11.09;78.07617;98264.23;;;;
2021/04/21 18:07:21;;;;;;;19.1;17.1;;;;;;;10.8;80.76465;98266.75;;;;
2021/04/21 18:17:20;;;;;;;27.6;20;;;;;;;10.36;83.2959;98278.58;;;;
2021/04/21 18:27:19;;;;;;;20.5;18.2;;;;;;;9.86;85.15527;98296.08;;;;
2021/04/21 18:37:18;;;;;;;27.9;20.2;;;;;;;9.7;88.22363;98298.39;;;;
2021/04/21 18:47:17;;;;;;;31.8;21.9;;;;;;;9.77;88.47266;98297.95;;;;
2021/04/21 18:57:15;;;;;;;27.3;22;;;;;;;9.76;87.83203;98307.91;;;;
2021/04/21 19:07:14;;;;;;;24.6;17.2;;;;;;;9.55;86.39746;98314.91;;;;
2021/04/21 19:17:13;;;;;;;23.3;18.4;;;;;;;9.44;86.08496;98311.67;;;;
2021/04/21 19:27:12;;;;;;;31.2;27.1;;;;;;;9.51;88.0293;98312.03;;;;
2021/04/21 19:37:10;;;;;;;24.2;18.4;;;;;;;9.73;85.5459;98321.99;;;;
2021/04/21 19:47:09;;;;;;;33.7;24.3;;;;;;;9.91;84.13086;98314.8;;;;
2021/04/21 19:57:09;;;;;;;24.3;19.1;;;;;;;10.01;83.40918;98326.09;;;;
2021/04/21 20:07:07;;;;;;;26.2;20.5;;;;;;;10.15;81.92773;98350.27;;;;
2021/04/21 20:17:06;;;;;;;18.4;13.9;;;;;;;10.28;85.12598;98354.75;;;;
2021/04/21 20:27:05;;;;;;;23.1;16.3;;;;;;;9.75;94.87012;98325.19;;;;
2021/04/21 20:37:03;;;;;;;13;9.9;;;;;;;9.61;96.01465;98305.63;;;;
2021/04/21 20:47:03;;;;;;;12.8;8.8;;;;;;;9.64;94.39941;98315.77;;;;
2021/04/21 20:57:01;;;;;;;9.2;7.3;;;;;;;9.76;90.64648;98312.5;;;;
2021/04/21 21:07:00;;;;;;;14;9.8;;;;;;;9.82;92.0166;98319.36;;;;
2021/04/21 21:16:59;;;;;;;11.9;9.4;;;;;;;9.6;93.0791;98314.8;;;;
2021/04/21 21:26:58;;;;;;;14;9.2;;;;;;;9.5;94.46875;98310.47;;;;
2021/04/21 21:36:56;;;;;;;10.7;9.5;;;;;;;9.63;93.99414;98303.41;;;;
2021/04/21 21:46:56;;;;;;;14.8;12;;;;;;;9.72;92.63281;98290.02;;;;
2021/04/21 21:56:54;;;;;;;19.4;12.6;;;;;;;9.8;91.0918;98297.33;;;;
2021/04/21 22:06:53;;;;;;;16.7;13.9;;;;;;;9.78;90.60742;98303.03;;;;
2021/04/21 22:16:52;;;;;;;17.6;14;;;;;;;9.69;90.23926;98307.56;;;;
2021/04/21 22:26:50;;;;;;;14.9;12.1;;;;;;;9.67;89.47266;98296.32;;;;
2021/04/21 22:36:49;;;;;;;18.1;13;;;;;;;9.78;88.38574;98294.96;;;;
2021/04/21 22:46:48;;;;;;;14.7;11.5;;;;;;;9.83;87.75488;98294.81;;;;
2021/04/21 22:56:48;;;;;;;12.8;11.1;;;;;;;9.84;88.0166;98307.17;;;;
2021/04/21 23:06:45;;;;;;;14.7;11.6;;;;;;;9.82;87.95508;98305.91;;;;
2021/04/21 23:16:46;;;;;;;15.9;11.3;;;;;;;9.77;88.77539;98306.02;;;;
2021/04/21 23:26:43;;;;;;;19.6;14.3;;;;;;;9.66;89.97559;98305.48;;;;
2021/04/21 23:36:42;;;;;;;19.9;13.4;;;;;;;9.51;91.4248;98297.81;;;;
2021/04/21 23:46:41;;;;;;;19.1;13.5;;;;;;;9.37;93.44531;98297.09;;;;
2021/04/21 23:56:39;;;;;;;20.9;15.3;;;;;;;9.21;95.33594;98302.02;;;;
